Felker Army Air Field
KFAF : now visible

Airfield :











YOU CAN JOIN US ON...

 
LOGIN :

Register | Disclaimer

   EN    FR    IT 

 









Legend :    VFR   Marginal VFR   IFR   Intensive IFR   Very Intensive IFR
Visi :
Ceiling :
>= 8 km
>= 3000ft
5 to 8 km
1000 to 3000 ft
1500m to 5 km
500 to 1000 ft
800 to 1500m
200 to 500 ft
< 800m
< 200 ft
Symbols :   Thunderstorms  Fog  Heavy snow  Heavy precipitations  Wind > 20 kt






- Airport Elevation : 12 ft


KFAF - Felker Army Air Field

CURRENT METAR :
  • 261656Z 10007KT 1/2SM FG OVC004 12/12 A2985 RMK SLP111 T01220119 $

EXPIRED METARs :
  • 261556Z 12006KT 1/2SM FG OVC004 12/12 A2987 RMK SLP118 T01180115 $
  • 261456Z 09006KT 1/2SM FG OVC004 11/11 A2988 RMK AO2A SLP121 T01140111 51012 $

TAF AMD TAF KFAF
Valid from the 26 at 15:00 until the 27 at 17:00 UTC


261500Z 2615/2717 VRB06KT 0800 FG OVC002 QNH2980INS
BECMG 2620/2621 VRB06KT 3200 BR BKN007 OVC010 QNH2972INS
BECMG 2701/2702 21015KT 6000 -SHRA BKN010 QNH2955INS
BECMG 2708/2709 27012KT 9999 NSW SCT060 QNH2959INS
BECMG 2714/2715 29020G30KT 9999 FEW050 510003 QNH2978INS TX15/2703Z TN06/2615Z



MET'MAP, your aeronautical weather chart ! - Copyright ORBIFLY December 2007 - Disclaimer

ORBIFLY MET'MAP TEAM :

Programming & Development : Alexandra Zaïnal
Concept & original design : Baudouin d'Aumeries
Assistance for programming : Marc-Olivier Méhu
Technical & hardware support : Manuel Goepfert

Contact : metmap@orbifly.com




SOURCES & CREDITS :

   NOAA       Earth
Advisory